Cardigan, United Kingdom
Current Conditions -  °F | °C
As of 4:50 AM on Monday 20 Oct 2014 (Local Time) from EGOP Reporting Station
Broken Clouds Broken Clouds  
Wind Chill: 14°   Ceiling: 6000
Heat Index: 14°   Visibility: 6mi
Dew Point: 11°   Wind: 21mph
Humidity: 82%   Direction: 260°W
Pressure: 30"   Gusts: NA
Location:  52.09°N, 4.66°W
Report Text: EGOP 200350Z AUTO 26018KT 9999 // SCT032/// BKN060/// 14/11 Q1016
Loading
Personal Weather Stations






























Interactive Weather Map
Tropical Storm Tracking
New forecast layout! Learn more

10-Day Weather Forecast

Advertisements
Track Severe Weather on mobile